Time;durP1;ratioP1;P1;durP2;ratioP2;P2;SDS_P1;SDS_P2;PMS_P1;PMS_P2;Temp;Humidity;BMP_temperature;BMP_pressure;BME280_temperature;BME280_humidity;BME280_pressure;Samples;Min_cycle;Max_cycle;Signal;HPM_P1;HPM_P2
2023/06/04 00:00:06;;;;;;;3.83;2.28;;;10.80;89.20;;;;;;5070436;28;20047;-41
2023/06/04 00:02:32;;;;;;;2.88;1.98;;;10.70;90.00;;;;;;5069592;28;20032;-40
2023/06/04 00:04:58;;;;;;;4.18;1.90;;;10.70;89.90;;;;;;5070494;28;20020;-41
2023/06/04 00:07:24;;;;;;;5.25;2.40;;;10.70;90.80;;;;;;5076194;28;20012;-42
2023/06/04 00:09:49;;;;;;;2.65;2.05;;;10.60;91.00;;;;;;5080807;28;20342;-41
2023/06/04 00:12:15;;;;;;;3.72;2.55;;;10.60;91.30;;;;;;5074696;28;20035;-40
2023/06/04 00:14:42;;;;;;;2.58;1.98;;;10.60;91.10;;;;;;5090105;28;20024;-41
2023/06/04 00:17:09;;;;;;;3.55;2.53;;;10.60;90.80;;;;;;5070565;28;20070;-41
2023/06/04 00:19:35;;;;;;;4.95;2.78;;;10.70;90.00;;;;;;5068435;28;20055;-41
2023/06/04 00:22:01;;;;;;;3.00;2.30;;;10.70;90.80;;;;;;5068824;28;20112;-41
2023/06/04 00:24:26;;;;;;;3.17;2.30;;;10.70;90.40;;;;;;5070346;28;20104;-41
2023/06/04 00:26:52;;;;;;;3.47;2.55;;;10.50;91.30;;;;;;5067646;28;20111;-41
2023/06/04 00:29:17;;;;;;;4.75;2.75;;;10.50;92.50;;;;;;5076813;28;20016;-40
2023/06/04 00:31:43;;;;;;;4.93;2.50;;;10.50;91.20;;;;;;5073158;28;20362;-40
2023/06/04 00:34:10;;;;;;;4.13;2.15;;;10.40;91.70;;;;;;5070320;28;20017;-41
2023/06/04 00:36:36;;;;;;;4.30;2.20;;;10.30;93.00;;;;;;5070286;28;20028;-41
2023/06/04 00:39:02;;;;;;;3.55;2.20;;;10.30;92.60;;;;;;5068395;28;20032;-40
2023/06/04 00:41:28;;;;;;;3.63;2.45;;;10.30;92.40;;;;;;5068724;28;20024;-43
2023/06/04 00:43:56;;;;;;;7.63;2.53;;;10.20;94.60;;;;;;5069596;28;20410;-41
2023/06/04 00:46:26;;;;;;;3.75;2.42;;;10.10;93.80;;;;;;5070272;28;20016;-43
2023/06/04 00:48:53;;;;;;;3.85;2.53;;;10.10;93.60;;;;;;5077475;28;20490;-41
2023/06/04 00:51:20;;;;;;;3.33;2.10;;;10.20;93.30;;;;;;5082492;28;20036;-42
2023/06/04 00:53:46;;;;;;;3.70;2.50;;;10.20;93.60;;;;;;5089627;28;20359;-44
2023/06/04 00:56:12;;;;;;;3.35;2.42;;;10.20;93.50;;;;;;5089848;28;20052;-42
2023/06/04 00:58:39;;;;;;;3.85;2.60;;;10.20;93.00;;;;;;5080920;28;20020;-42
2023/06/04 01:01:10;;;;;;;3.33;2.20;;;10.20;93.20;;;;;;5089287;28;20028;-41
2023/06/04 01:03:41;;;;;;;2.95;2.28;;;10.10;94.70;;;;;;5089774;28;20496;-43
2023/06/04 01:06:21;;;;;;;3.45;1.90;;;10.10;96.00;;;;;;5069747;28;20016;-42
2023/06/04 01:08:49;;;;;;;5.35;2.50;;;10.00;95.50;;;;;;5068216;28;20183;-41
2023/06/04 01:11:15;;;;;;;3.88;2.60;;;10.00;94.20;;;;;;5069555;28;20044;-41
2023/06/04 01:13:40;;;;;;;4.85;2.50;;;10.10;94.00;;;;;;5069229;28;20356;-41
2023/06/04 01:16:08;;;;;;;5.63;2.20;;;10.10;95.70;;;;;;5081295;28;20031;-42
2023/06/04 01:18:36;;;;;;;4.50;2.30;;;10.00;96.10;;;;;;5081461;28;20028;-42
2023/06/04 01:21:07;;;;;;;3.13;2.10;;;9.90;96.80;;;;;;5050999;28;20051;-42
2023/06/04 01:23:46;;;;;;;3.08;2.47;;;9.80;97.60;;;;;;5069370;28;20028;-41
2023/06/04 01:26:13;;;;;;;4.45;1.92;;;9.80;96.80;;;;;;5068423;28;20431;-40
2023/06/04 01:28:43;;;;;;;3.25;2.00;;;9.80;98.30;;;;;;5076750;28;20428;-41
2023/06/04 01:31:14;;;;;;;2.00;1.50;;;9.70;98.30;;;;;;5076758;28;20021;-41
2023/06/04 01:33:43;;;;;;;4.07;2.53;;;9.70;97.30;;;;;;5067921;28;20039;-42
2023/06/04 01:36:12;;;;;;;3.08;1.98;;;9.70;98.80;;;;;;5069227;28;20027;-44
2023/06/04 01:38:37;;;;;;;2.83;2.08;;;9.60;99.50;;;;;;5068669;28;20029;-41
2023/06/04 01:41:03;;;;;;;3.70;1.88;;;9.60;98.90;;;;;;5068398;28;20021;-43
2023/06/04 01:43:29;;;;;;;4.45;1.85;;;9.60;99.40;;;;;;5069068;28;20268;-41
2023/06/04 01:45:56;;;;;;;5.55;1.80;;;9.50;99.20;;;;;;5079487;28;20020;-42
2023/06/04 01:48:22;;;;;;;3.38;2.03;;;9.50;99.40;;;;;;5083039;28;20099;-42
2023/06/04 01:50:47;;;;;;;2.60;1.73;;;9.40;99.80;;;;;;5068658;28;20091;-41
2023/06/04 01:53:13;;;;;;;2.90;1.70;;;9.30;99.90;;;;;;5060484;28;20486;-41
2023/06/04 01:55:38;;;;;;;3.08;2.20;;;9.20;99.90;;;;;;5068835;28;20059;-43
2023/06/04 01:58:04;;;;;;;2.17;1.58;;;9.10;99.90;;;;;;5079746;28;20073;-41
2023/06/04 02:00:30;;;;;;;1.63;1.35;;;9.10;99.90;;;;;;5081884;28;20013;-41
2023/06/04 02:02:56;;;;;;;3.28;1.92;;;9.10;99.90;;;;;;5068792;28;20436;-40
2023/06/04 02:05:22;;;;;;;2.58;2.03;;;9.10;99.90;;;;;;5068860;28;20020;-41
2023/06/04 02:07:47;;;;;;;2.53;2.03;;;9.10;99.90;;;;;;5068712;28;20021;-40
2023/06/04 02:10:16;;;;;;;3.00;2.22;;;9.00;99.90;;;;;;5068361;28;20035;-41
2023/06/04 02:12:59;;;;;;;2.53;1.70;;;9.00;99.90;;;;;;5060097;28;20111;-41
2023/06/04 02:15:26;;;;;;;3.20;2.25;;;9.00;99.90;;;;;;5073246;28;20028;-41
2023/06/04 02:17:58;;;;;;;4.68;2.03;;;9.00;99.90;;;;;;5078013;28;20107;-41
2023/06/04 02:20:27;;;;;;;2.85;1.70;;;9.00;99.90;;;;;;5068010;28;20009;-40
2023/06/04 02:22:56;;;;;;;4.43;2.17;;;9.00;99.90;;;;;;5067958;28;20044;-40
2023/06/04 02:25:23;;;;;;;2.30;1.88;;;8.80;99.90;;;;;;5068594;28;20052;-40
2023/06/04 02:27:49;;;;;;;4.20;2.03;;;8.80;99.90;;;;;;5076036;28;20450;-41
2023/06/04 02:30:16;;;;;;;3.65;1.85;;;8.90;99.90;;;;;;5083032;28;20437;-41
2023/06/04 02:32:44;;;;;;;3.70;2.38;;;8.80;99.90;;;;;;5068089;28;20026;-41
2023/06/04 02:35:10;;;;;;;3.47;2.15;;;8.70;99.90;;;;;;5060553;28;20486;-41
2023/06/04 02:37:36;;;;;;;3.17;2.10;;;8.70;99.90;;;;;;5055787;28;20413;-42
2023/06/04 02:40:02;;;;;;;3.03;1.95;;;8.70;99.90;;;;;;5066073;28;20039;-41
2023/06/04 02:42:28;;;;;;;5.97;2.08;;;8.70;99.90;;;;;;5066490;28;20485;-42
2023/06/04 02:44:53;;;;;;;2.13;1.73;;;8.70;99.90;;;;;;5064589;28;20070;-42
2023/06/04 02:47:19;;;;;;;2.55;2.00;;;8.70;99.90;;;;;;5060931;28;20021;-41
2023/06/04 02:49:46;;;;;;;4.40;1.95;;;8.60;99.90;;;;;;5056494;28;20029;-42
2023/06/04 02:52:12;;;;;;;2.78;2.08;;;8.60;99.90;;;;;;5057460;28;20021;-42
2023/06/04 02:54:38;;;;;;;5.03;2.22;;;8.60;99.90;;;;;;5055771;28;20482;-41
2023/06/04 02:57:04;;;;;;;3.58;1.70;;;8.50;99.90;;;;;;5059406;28;20033;-41
2023/06/04 02:59:30;;;;;;;2.63;1.95;;;8.50;99.90;;;;;;5059043;28;20031;-42
2023/06/04 03:01:55;;;;;;;4.47;1.58;;;8.40;99.90;;;;;;5058903;28;20095;-42
2023/06/04 03:04:21;;;;;;;4.40;2.20;;;8.30;99.90;;;;;;5060710;28;20021;-40
2023/06/04 03:06:47;;;;;;;2.92;2.00;;;8.40;99.90;;;;;;5059010;28;20047;-41
2023/06/04 03:09:13;;;;;;;3.75;1.90;;;8.40;99.90;;;;;;5057559;28;20075;-41
2023/06/04 03:11:38;;;;;;;2.60;1.50;;;8.30;99.90;;;;;;5057949;28;20021;-41
2023/06/04 03:14:04;;;;;;;3.08;1.67;;;8.40;99.90;;;;;;5068372;28;20522;-43
2023/06/04 03:16:29;;;;;;;3.90;1.77;;;8.30;99.90;;;;;;5079712;28;20021;-41
2023/06/04 03:18:56;;;;;;;2.67;2.03;;;8.20;99.90;;;;;;5071132;28;20051;-43
2023/06/04 03:21:22;;;;;;;4.25;2.38;;;8.10;99.90;;;;;;5071741;28;20017;-42
2023/06/04 03:23:47;;;;;;;3.63;1.95;;;8.10;99.90;;;;;;5070361;28;20435;-42
2023/06/04 03:26:13;;;;;;;4.05;2.05;;;8.10;99.90;;;;;;5071701;28;20016;-41
2023/06/04 03:28:40;;;;;;;2.58;1.60;;;8.00;99.90;;;;;;5083424;28;20081;-42
2023/06/04 03:31:05;;;;;;;2.88;1.70;;;8.00;99.90;;;;;;5079950;28;20028;-42
2023/06/04 03:33:31;;;;;;;1.90;1.65;;;8.10;99.90;;;;;;5081220;28;20034;-43
2023/06/04 03:35:59;;;;;;;2.15;1.80;;;8.10;99.90;;;;;;5072759;28;20095;-42
2023/06/04 03:38:26;;;;;;;3.40;1.80;;;8.00;99.90;;;;;;5069813;28;20501;-43
2023/06/04 03:40:52;;;;;;;3.20;2.10;;;8.10;99.90;;;;;;5070923;28;20024;-41
2023/06/04 03:43:18;;;;;;;5.45;2.17;;;8.10;99.90;;;;;;5069633;28;20661;-41
2023/06/04 03:45:44;;;;;;;2.53;1.80;;;8.10;99.90;;;;;;5069092;28;20433;-43
2023/06/04 03:48:10;;;;;;;3.05;2.03;;;8.20;99.90;;;;;;5063125;28;20095;-42
2023/06/04 03:50:36;;;;;;;2.45;1.88;;;8.30;99.90;;;;;;5070692;28;20056;-42
2023/06/04 03:53:04;;;;;;;2.83;1.92;;;8.40;99.90;;;;;;5070723;28;20040;-42
2023/06/04 03:55:31;;;;;;;3.05;1.88;;;8.40;99.90;;;;;;5071046;28;20207;-42
2023/06/04 03:57:57;;;;;;;3.72;2.28;;;8.50;99.90;;;;;;5079563;28;20543;-41
2023/06/04 04:00:23;;;;;;;3.92;2.15;;;8.60;99.90;;;;;;5083365;28;20021;-42
2023/06/04 04:02:49;;;;;;;3.53;2.10;;;8.60;99.90;;;;;;5069519;28;20027;-41
2023/06/04 04:05:15;;;;;;;4.03;2.17;;;8.70;99.90;;;;;;5070796;28;20206;-42
2023/06/04 04:07:41;;;;;;;2.45;2.05;;;8.70;99.90;;;;;;5069076;28;20481;-42
2023/06/04 04:10:07;;;;;;;3.30;2.20;;;8.80;99.90;;;;;;5070271;28;20025;-43
2023/06/04 04:12:32;;;;;;;3.00;2.17;;;8.80;99.90;;;;;;5061892;28;20032;-42
2023/06/04 04:14:58;;;;;;;17.63;2.67;;;8.80;99.90;;;;;;5063902;28;20382;-42
2023/06/04 04:17:24;;;;;;;4.45;2.50;;;8.90;99.90;;;;;;5061593;28;20477;-42
2023/06/04 04:19:49;;;;;;;3.10;2.38;;;8.80;99.90;;;;;;5060600;28;20608;-43
2023/06/04 04:22:17;;;;;;;2.90;2.38;;;8.90;99.90;;;;;;5064502;28;20056;-43
2023/06/04 04:24:43;;;;;;;3.70;2.78;;;8.90;99.90;;;;;;5070316;28;20028;-42
2023/06/04 04:27:15;;;;;;;3.20;2.30;;;8.90;99.90;;;;;;5070162;28;20018;-42
2023/06/04 04:29:42;;;;;;;3.25;2.10;;;8.90;99.90;;;;;;5069722;28;20476;-43
2023/06/04 04:32:10;;;;;;;3.17;2.15;;;9.00;99.90;;;;;;5069328;28;20108;-42
2023/06/04 04:34:42;;;;;;;2.63;2.03;;;9.00;99.90;;;;;;5086255;28;20020;-43
2023/06/04 04:37:08;;;;;;;3.63;2.10;;;9.00;99.90;;;;;;5078185;28;20403;-43
2023/06/04 04:39:34;;;;;;;3.42;2.17;;;9.10;99.90;;;;;;5069535;28;20036;-44
2023/06/04 04:42:00;;;;;;;5.30;2.53;;;9.10;99.90;;;;;;5070384;28;20085;-45
2023/06/04 04:44:26;;;;;;;3.28;2.00;;;9.10;99.90;;;;;;5063557;28;20040;-43
2023/06/04 04:46:51;;;;;;;2.85;2.00;;;9.20;99.90;;;;;;5067547;28;20021;-43
2023/06/04 04:49:17;;;;;;;2.30;1.83;;;9.30;99.90;;;;;;5082625;28;20019;-44
2023/06/04 04:51:42;;;;;;;2.10;1.90;;;9.40;99.90;;;;;;5089491;28;20036;-43
2023/06/04 04:54:08;;;;;;;2.40;2.10;;;9.30;99.90;;;;;;5069854;28;20024;-42
2023/06/04 04:56:34;;;;;;;3.45;2.22;;;9.40;99.90;;;;;;5069758;28;20371;-42
2023/06/04 04:59:00;;;;;;;2.90;1.92;;;9.50;99.90;;;;;;5065481;28;21199;-42
2023/06/04 05:01:26;;;;;;;5.38;2.47;;;9.60;99.90;;;;;;5068845;28;20104;-42
2023/06/04 05:03:52;;;;;;;2.38;2.10;;;9.60;99.90;;;;;;5079057;28;20024;-42
2023/06/04 05:06:17;;;;;;;5.65;2.22;;;9.70;99.90;;;;;;5084853;28;20417;-42
2023/06/04 05:08:43;;;;;;;2.38;1.70;;;9.70;99.90;;;;;;5085902;28;20024;-42
2023/06/04 05:11:09;;;;;;;5.47;3.00;;;9.80;99.90;;;;;;5084264;28;20385;-42
2023/06/04 05:13:34;;;;;;;2.60;1.80;;;9.90;99.90;;;;;;5073750;28;20262;-42
2023/06/04 05:16:06;;;;;;;4.05;1.85;;;9.90;99.90;;;;;;5089296;28;20684;-42
2023/06/04 05:18:32;;;;;;;4.95;2.08;;;10.00;99.90;;;;;;5089044;28;20024;-42
2023/06/04 05:20:59;;;;;;;4.47;1.70;;;10.00;99.90;;;;;;5069769;28;20032;-43
2023/06/04 05:23:26;;;;;;;3.10;2.30;;;10.00;99.90;;;;;;5067238;28;20667;-42
2023/06/04 05:25:52;;;;;;;3.33;2.28;;;10.10;99.90;;;;;;5067758;28;20024;-42
2023/06/04 05:28:20;;;;;;;4.25;1.83;;;10.20;99.90;;;;;;5073012;28;20292;-41
2023/06/04 05:30:48;;;;;;;2.90;1.85;;;10.20;99.90;;;;;;5088202;28;20505;-43
2023/06/04 05:33:20;;;;;;;2.38;1.83;;;10.30;99.90;;;;;;5069031;28;20588;-42
2023/06/04 05:35:48;;;;;;;2.95;1.98;;;10.40;99.90;;;;;;5063259;28;20447;-42
2023/06/04 05:38:18;;;;;;;3.50;2.25;;;10.40;99.90;;;;;;5048647;28;20107;-42
2023/06/04 05:40:45;;;;;;;3.70;2.35;;;10.50;99.90;;;;;;5066075;28;20118;-42
2023/06/04 05:43:11;;;;;;;3.80;2.30;;;10.50;99.90;;;;;;5059425;28;20024;-42
2023/06/04 05:45:36;;;;;;;5.70;2.55;;;10.60;99.90;;;;;;5068110;28;20089;-43
2023/06/04 05:48:02;;;;;;;2.08;1.58;;;10.70;98.30;;;;;;5064787;28;20394;-41
2023/06/04 05:50:28;;;;;;;3.78;1.90;;;10.80;98.80;;;;;;5068167;28;20020;-43
2023/06/04 05:52:54;;;;;;;2.47;2.03;;;10.90;98.50;;;;;;5066057;28;20568;-43
2023/06/04 05:55:19;;;;;;;4.45;1.80;;;10.90;98.50;;;;;;5061770;28;20021;-43
2023/06/04 05:57:45;;;;;;;4.82;1.73;;;11.00;98.30;;;;;;5068088;28;20370;-43
2023/06/04 06:00:11;;;;;;;4.30;2.33;;;11.10;98.10;;;;;;5066624;28;20035;-42
2023/06/04 06:02:38;;;;;;;3.10;2.00;;;11.10;99.90;;;;;;5068294;28;20036;-44
2023/06/04 06:05:06;;;;;;;2.88;1.95;;;11.20;99.00;;;;;;5068260;28;20036;-43
2023/06/04 06:07:32;;;;;;;4.68;2.00;;;11.20;99.00;;;;;;5068120;28;20047;-46
2023/06/04 06:09:57;;;;;;;3.05;1.80;;;11.40;98.00;;;;;;5066529;28;20469;-42
2023/06/04 06:12:23;;;;;;;4.47;1.67;;;11.50;97.40;;;;;;5068187;28;20028;-43
2023/06/04 06:14:49;;;;;;;4.22;2.25;;;11.60;96.80;;;;;;5066454;28;20036;-43
2023/06/04 06:17:14;;;;;;;3.58;1.75;;;11.70;96.00;;;;;;5053270;28;20028;-42
2023/06/04 06:19:40;;;;;;;4.80;1.80;;;11.80;95.60;;;;;;5059765;28;20029;-42
2023/06/04 06:22:05;;;;;;;2.47;1.67;;;12.00;95.50;;;;;;5068294;28;20386;-41
2023/06/04 06:24:31;;;;;;;5.65;2.35;;;12.00;96.20;;;;;;5058605;28;20090;-43
2023/06/04 06:26:56;;;;;;;2.80;2.03;;;12.10;96.10;;;;;;5068128;28;20028;-42
2023/06/04 06:29:22;;;;;;;5.45;2.22;;;12.20;96.50;;;;;;5066444;28;20032;-41
2023/06/04 06:31:47;;;;;;;2.00;1.80;;;12.40;95.20;;;;;;5068235;28;20038;-43
2023/06/04 06:34:13;;;;;;;2.95;1.77;;;12.40;95.20;;;;;;5067883;28;20031;-42
2023/06/04 06:36:39;;;;;;;3.50;2.10;;;12.60;95.10;;;;;;5070793;28;20523;-42
2023/06/04 06:39:04;;;;;;;2.47;1.88;;;12.70;94.40;;;;;;5071913;28;20055;-43
2023/06/04 06:41:30;;;;;;;5.13;1.88;;;12.80;94.00;;;;;;5071839;28;20044;-41
2023/06/04 06:43:57;;;;;;;4.35;2.08;;;13.00;95.50;;;;;;5070721;28;20120;-42
2023/06/04 06:46:22;;;;;;;3.05;1.80;;;13.00;95.40;;;;;;5072233;28;20027;-42
2023/06/04 06:48:48;;;;;;;3.20;1.73;;;13.10;95.90;;;;;;5071347;28;20107;-43
2023/06/04 06:51:14;;;;;;;2.42;1.55;;;13.20;94.30;;;;;;5071847;28;20017;-42
2023/06/04 06:53:39;;;;;;;4.00;1.83;;;13.30;93.70;;;;;;5071697;28;20490;-42
2023/06/04 06:56:06;;;;;;;5.85;1.80;;;13.40;93.50;;;;;;5071725;28;20031;-42
2023/06/04 06:58:31;;;;;;;1.70;1.60;;;13.60;93.20;;;;;;5071477;28;20028;-45
2023/06/04 07:00:57;;;;;;;2.88;2.08;;;13.70;93.20;;;;;;5070103;28;20017;-43
2023/06/04 07:03:22;;;;;;;2.90;1.98;;;13.80;93.30;;;;;;5071756;28;20070;-43
2023/06/04 07:05:48;;;;;;;2.80;1.77;;;13.90;92.20;;;;;;5051167;28;20025;-42
2023/06/04 07:08:14;;;;;;;2.92;2.13;;;14.00;93.20;;;;;;5071443;28;20021;-42
2023/06/04 07:10:39;;;;;;;3.72;1.83;;;14.10;92.40;;;;;;5071828;28;20021;-42
2023/06/04 07:13:05;;;;;;;2.72;2.00;;;14.20;90.50;;;;;;5071621;28;20032;-41
2023/06/04 07:15:30;;;;;;;3.95;1.67;;;14.40;90.70;;;;;;5071995;28;20031;-42
2023/06/04 07:17:56;;;;;;;4.57;1.70;;;14.60;91.20;;;;;;5070515;28;20033;-42
2023/06/04 07:20:22;;;;;;;2.75;1.83;;;14.80;90.80;;;;;;5069419;28;20028;-43
2023/06/04 07:22:47;;;;;;;5.95;2.25;;;14.90;90.90;;;;;;5071315;28;20390;-41
2023/06/04 07:25:13;;;;;;;2.15;1.75;;;15.00;90.40;;;;;;5071867;28;20087;-41
2023/06/04 07:27:38;;;;;;;4.90;2.38;;;15.20;90.60;;;;;;5071478;28;20650;-42
2023/06/04 07:30:06;;;;;;;3.28;1.95;;;15.30;87.90;;;;;;5071038;28;20055;-42
2023/06/04 07:32:31;;;;;;;2.70;2.10;;;15.50;87.40;;;;;;5069981;28;20109;-42
2023/06/04 07:34:57;;;;;;;2.30;1.55;;;15.60;85.80;;;;;;5069448;28;20332;-44
2023/06/04 07:37:22;;;;;;;3.17;1.85;;;15.80;83.40;;;;;;5069779;28;20119;-41
2023/06/04 07:39:48;;;;;;;7.13;2.00;;;15.90;80.80;;;;;;5069370;28;20114;-42
2023/06/04 07:42:13;;;;;;;2.42;1.52;;;16.10;80.10;;;;;;5069832;28;20024;-45
2023/06/04 07:44:39;;;;;;;4.70;2.00;;;16.30;79.10;;;;;;5069870;28;20441;-42
2023/06/04 07:47:05;;;;;;;4.07;2.00;;;16.40;79.10;;;;;;5070271;28;20107;-43
2023/06/04 07:49:31;;;;;;;5.93;1.52;;;16.60;77.30;;;;;;5069553;28;20103;-43
2023/06/04 07:51:56;;;;;;;1.90;1.70;;;16.70;78.40;;;;;;5071300;28;20024;-42
2023/06/04 07:54:23;;;;;;;3.83;1.42;;;16.90;77.80;;;;;;5071579;28;20017;-43
2023/06/04 07:56:49;;;;;;;3.53;2.05;;;17.10;78.30;;;;;;5071439;28;20402;-43
2023/06/04 07:59:14;;;;;;;3.03;1.70;;;17.30;79.30;;;;;;5070939;28;20021;-42
2023/06/04 08:01:40;;;;;;;7.30;1.77;;;17.50;76.70;;;;;;5071224;28;20025;-43
2023/06/04 08:04:05;;;;;;;4.20;1.70;;;17.80;77.90;;;;;;5071107;28;20025;-44
2023/06/04 08:06:31;;;;;;;4.13;2.10;;;18.20;77.70;;;;;;5071003;28;20031;-43
2023/06/04 08:08:57;;;;;;;2.80;1.77;;;18.40;75.90;;;;;;5070513;28;20035;-43
2023/06/04 08:11:25;;;;;;;3.45;1.92;;;18.90;71.90;;;;;;5070943;28;20052;-43
2023/06/04 08:13:51;;;;;;;4.32;1.52;;;19.60;72.30;;;;;;5070815;28;20025;-44
2023/06/04 08:16:16;;;;;;;3.38;1.88;;;20.70;70.20;;;;;;5070975;28;20051;-44
2023/06/04 08:18:42;;;;;;;2.80;1.38;;;21.90;68.50;;;;;;5070428;28;20020;-43
2023/06/04 08:21:11;;;;;;;1.75;1.65;;;23.30;63.20;;;;;;5070500;28;20016;-46
2023/06/04 08:23:37;;;;;;;2.80;1.48;;;24.40;57.40;;;;;;5070459;28;20025;-46
2023/06/04 08:26:02;;;;;;;2.92;1.40;;;25.10;55.90;;;;;;5070498;28;20066;-43
2023/06/04 08:28:28;;;;;;;2.30;1.27;;;26.20;52.00;;;;;;5070734;28;20048;-43
2023/06/04 08:30:53;;;;;;;3.88;1.70;;;27.00;51.60;;;;;;5069954;28;20081;-44
2023/06/04 08:33:19;;;;;;;0.90;0.90;;;27.80;49.30;;;;;;5070192;28;20104;-43
2023/06/04 08:35:44;;;;;;;2.30;1.40;;;28.10;46.20;;;;;;5070165;28;20052;-44
2023/06/04 08:38:10;;;;;;;1.10;0.88;;;28.80;46.00;;;;;;5069769;28;20032;-45
2023/06/04 08:40:36;;;;;;;3.92;1.40;;;29.20;45.00;;;;;;5061591;28;20024;-46
2023/06/04 08:43:01;;;;;;;4.00;1.50;;;29.50;42.40;;;;;;5061762;28;20584;-45
2023/06/04 08:45:27;;;;;;;3.83;1.17;;;30.60;42.60;;;;;;5070010;28;20150;-44
2023/06/04 08:47:54;;;;;;;1.80;1.30;;;31.10;41.60;;;;;;5069688;28;20025;-44
2023/06/04 08:50:22;;;;;;;1.75;1.27;;;31.60;41.70;;;;;;5064159;28;20025;-44
2023/06/04 08:52:55;;;;;;;3.05;1.58;;;32.20;39.20;;;;;;5066269;28;20039;-45
2023/06/04 08:55:22;;;;;;;1.17;1.10;;;32.20;37.70;;;;;;5063402;28;20103;-46
2023/06/04 08:57:52;;;;;;;1.73;1.33;;;33.00;37.60;;;;;;5068895;28;20029;-44
2023/06/04 09:00:18;;;;;;;2.80;1.40;;;33.30;38.30;;;;;;5069023;28;20025;-45
2023/06/04 09:02:46;;;;;;;2.30;1.23;;;33.30;37.10;;;;;;5069706;28;20103;-41
2023/06/04 09:05:19;;;;;;;4.93;1.15;;;33.90;38.40;;;;;;5069804;28;20019;-42
2023/06/04 09:07:46;;;;;;;2.08;1.17;;;33.80;35.70;;;;;;5069487;28;20024;-45
2023/06/04 09:10:15;;;;;;;1.90;1.23;;;33.50;36.90;;;;;;5056671;28;20076;-42
2023/06/04 09:12:46;;;;;;;1.25;1.15;;;33.70;35.80;;;;;;5065773;28;20028;-42
2023/06/04 09:15:11;;;;;;;2.25;1.10;;;34.60;35.00;;;;;;5069303;28;20607;-42
2023/06/04 09:17:37;;;;;;;2.40;1.42;;;35.10;34.50;;;;;;5069318;28;20145;-42
2023/06/04 09:20:03;;;;;;;1.67;1.58;;;34.80;34.60;;;;;;5068694;28;20381;-46
2023/06/04 09:22:36;;;;;;;1.23;1.13;;;34.90;35.40;;;;;;5069470;28;20490;-43
2023/06/04 09:25:06;;;;;;;1.00;0.90;;;35.30;34.80;;;;;;5069269;28;20028;-42
2023/06/04 09:27:40;;;;;;;2.80;1.13;;;35.10;36.40;;;;;;5061126;28;20383;-44
2023/06/04 09:30:08;;;;;;;2.28;1.30;;;35.20;34.40;;;;;;5068512;28;20085;-44
2023/06/04 09:32:33;;;;;;;4.60;1.88;;;35.70;34.30;;;;;;5067895;28;20438;-42
2023/06/04 09:35:18;;;;;;;1.08;1.00;;;36.00;34.20;;;;;;5068956;28;20028;-41
2023/06/04 09:37:57;;;;;;;1.33;1.10;;;35.90;33.50;;;;;;5069004;28;20035;-43
2023/06/04 09:40:23;;;;;;;1.53;1.10;;;35.90;32.80;;;;;;5068740;28;20390;-43
2023/06/04 09:42:54;;;;;;;1.20;0.93;;;35.40;32.90;;;;;;5067837;28;20251;-43
2023/06/04 09:45:35;;;;;;;1.95;1.25;;;35.70;32.20;;;;;;5062456;28;20020;-42
2023/06/04 09:48:02;;;;;;;1.10;1.00;;;35.60;32.10;;;;;;5068492;28;20027;-43
2023/06/04 09:50:38;;;;;;;2.60;1.30;;;35.60;33.50;;;;;;5068384;28;20548;-43
2023/06/04 09:53:20;;;;;;;2.47;1.00;;;36.10;32.40;;;;;;5060532;28;20542;-44
2023/06/04 09:55:57;;;;;;;1.73;1.23;;;35.70;32.00;;;;;;5067776;28;20028;-43
2023/06/04 09:58:25;;;;;;;1.10;1.00;;;36.10;33.50;;;;;;5060646;28;20024;-43
2023/06/04 10:00:55;;;;;;;2.70;1.10;;;36.00;32.30;;;;;;5068379;28;20092;-46
2023/06/04 10:03:25;;;;;;;3.05;1.15;;;36.60;33.50;;;;;;5068966;28;20035;-44
2023/06/04 10:05:53;;;;;;;4.47;1.20;;;36.80;33.20;;;;;;5068564;28;20017;-44
2023/06/04 10:08:21;;;;;;;2.72;1.00;;;36.80;32.30;;;;;;5068420;28;20406;-46
2023/06/04 10:10:48;;;;;;;5.15;1.42;;;36.30;33.10;;;;;;5067900;28;20028;-44
2023/06/04 10:13:18;;;;;;;1.55;1.13;;;35.90;33.70;;;;;;5068665;28;20439;-43
2023/06/04 10:15:44;;;;;;;2.70;0.80;;;36.80;33.20;;;;;;5068577;28;20023;-44
2023/06/04 10:18:10;;;;;;;1.75;1.10;;;37.60;32.00;;;;;;5068038;28;20401;-42
2023/06/04 10:20:40;;;;;;;1.63;1.40;;;37.40;32.40;;;;;;5068322;28;20054;-42
2023/06/04 10:23:07;;;;;;;1.17;1.07;;;37.70;32.00;;;;;;5068526;28;20528;-44
2023/06/04 10:25:35;;;;;;;2.35;1.30;;;37.30;32.00;;;;;;5068597;28;20029;-43
2023/06/04 10:28:02;;;;;;;1.20;1.10;;;36.70;32.20;;;;;;5068774;28;20056;-43
2023/06/04 10:30:29;;;;;;;1.40;1.00;;;37.40;30.80;;;;;;5067904;28;20020;-42
2023/06/04 10:32:59;;;;;;;1.58;0.95;;;37.90;31.40;;;;;;5066827;28;20486;-42
2023/06/04 10:35:35;;;;;;;1.75;0.95;;;37.10;30.20;;;;;;5067252;28;20559;-43
2023/06/04 10:38:08;;;;;;;1.25;0.98;;;37.10;31.00;;;;;;5068048;28;20028;-42
2023/06/04 10:40:35;;;;;;;2.30;1.38;;;37.70;30.50;;;;;;5046886;28;20032;-42
2023/06/04 10:43:09;;;;;;;1.45;1.05;;;36.70;31.20;;;;;;5066251;28;20021;-42
2023/06/04 10:45:35;;;;;;;1.48;0.80;;;36.70;30.90;;;;;;5067100;28;20016;-44
2023/06/04 10:48:02;;;;;;;3.13;0.80;;;37.00;30.90;;;;;;5068213;28;20029;-43
2023/06/04 10:50:28;;;;;;;1.58;0.80;;;36.80;29.70;;;;;;5067727;28;20028;-42
2023/06/04 10:52:57;;;;;;;1.92;0.95;;;37.30;30.40;;;;;;5068043;28;20043;-42
2023/06/04 10:55:24;;;;;;;1.52;0.80;;;37.40;29.80;;;;;;5066896;28;20103;-43
2023/06/04 10:57:57;;;;;;;2.33;0.95;;;38.00;30.20;;;;;;5068068;28;20046;-42
2023/06/04 11:00:34;;;;;;;4.13;1.50;;;37.50;31.00;;;;;;5062236;28;20029;-42
2023/06/04 11:03:02;;;;;;;2.40;1.08;;;37.90;29.60;;;;;;5066578;28;20482;-43
2023/06/04 11:05:37;;;;;;;1.20;1.10;;;37.50;30.60;;;;;;5068265;28;20662;-42
2023/06/04 11:08:05;;;;;;;2.33;1.45;;;37.70;31.20;;;;;;5050016;28;20488;-42
2023/06/04 11:10:47;;;;;;;1.67;1.02;;;37.10;32.00;;;;;;5066700;28;20115;-42
2023/06/04 11:13:13;;;;;;;2.30;1.10;;;37.40;30.20;;;;;;5059097;28;20053;-42
2023/06/04 11:15:46;;;;;;;2.92;1.10;;;37.00;31.50;;;;;;5067914;28;20033;-42
2023/06/04 11:18:19;;;;;;;1.55;1.20;;;36.50;32.20;;;;;;5067655;28;20622;-41
2023/06/04 11:20:50;;;;;;;3.88;1.20;;;36.30;30.00;;;;;;5067630;28;20025;-44
2023/06/04 11:23:17;;;;;;;1.42;1.15;;;35.70;30.60;;;;;;5071138;28;20042;-41
2023/06/04 11:25:44;;;;;;;2.40;1.00;;;35.00;32.40;;;;;;5050302;28;20035;-43
2023/06/04 11:28:17;;;;;;;1.58;1.05;;;35.90;30.40;;;;;;5069786;28;20017;-42
2023/06/04 11:30:43;;;;;;;1.70;1.08;;;36.50;30.40;;;;;;5071372;28;20099;-43
2023/06/04 11:33:09;;;;;;;2.00;1.10;;;36.80;30.20;;;;;;5071146;28;20652;-43
2023/06/04 11:35:42;;;;;;;2.53;1.02;;;36.40;31.20;;;;;;5069796;28;20159;-43
2023/06/04 11:38:09;;;;;;;1.35;0.90;;;35.90;29.90;;;;;;5070802;28;20205;-42
2023/06/04 11:40:35;;;;;;;6.55;1.50;;;36.60;29.70;;;;;;5069347;28;20111;-43
2023/06/04 11:43:02;;;;;;;1.10;0.93;;;37.10;29.40;;;;;;5071361;28;20099;-43
2023/06/04 11:45:29;;;;;;;1.42;1.10;;;36.00;30.30;;;;;;5071051;28;20367;-44
2023/06/04 11:47:56;;;;;;;2.15;1.30;;;35.70;32.00;;;;;;5071453;28;20099;-42
2023/06/04 11:50:26;;;;;;;1.23;1.10;;;35.80;32.00;;;;;;5070840;28;20036;-42
2023/06/04 11:52:52;;;;;;;1.30;1.20;;;35.60;31.70;;;;;;5069663;28;20032;-44
2023/06/04 11:55:20;;;;;;;1.83;1.10;;;34.40;32.40;;;;;;5071229;28;20028;-43
2023/06/04 11:57:46;;;;;;;2.67;1.00;;;33.80;35.30;;;;;;5070994;28;20025;-42
2023/06/04 12:00:13;;;;;;;2.25;1.25;;;33.50;33.30;;;;;;5070363;28;20074;-44
2023/06/04 12:02:48;;;;;;;1.92;1.52;;;33.80;33.40;;;;;;5071087;28;20074;-41
2023/06/04 12:05:14;;;;;;;4.80;1.02;;;33.10;34.30;;;;;;5070691;28;20107;-42
2023/06/04 12:07:41;;;;;;;2.20;1.10;;;32.30;35.10;;;;;;5070828;28;20082;-41
2023/06/04 12:10:11;;;;;;;1.77;1.20;;;32.30;33.90;;;;;;5070235;28;20024;-41
2023/06/04 12:12:37;;;;;;;3.17;1.20;;;32.10;33.70;;;;;;5070650;28;20039;-41
2023/06/04 12:15:05;;;;;;;1.83;1.42;;;32.00;34.40;;;;;;5070566;28;20021;-41
2023/06/04 12:17:31;;;;;;;2.42;1.20;;;31.70;34.40;;;;;;5070475;28;20141;-41
2023/06/04 12:19:58;;;;;;;3.08;1.38;;;31.30;33.30;;;;;;5069863;28;20032;-41
2023/06/04 12:22:26;;;;;;;4.43;1.20;;;30.80;34.60;;;;;;5070403;28;20008;-42
2023/06/04 12:24:54;;;;;;;3.28;1.55;;;30.70;36.00;;;;;;5070247;28;20016;-41
2023/06/04 12:27:23;;;;;;;2.45;1.58;;;30.50;34.90;;;;;;5070076;28;20023;-41
2023/06/04 12:29:59;;;;;;;9.98;1.75;;;30.30;34.90;;;;;;5068584;28;20119;-41
2023/06/04 12:32:25;;;;;;;2.58;1.55;;;30.00;35.50;;;;;;5070343;28;20033;-42
2023/06/04 12:34:52;;;;;;;2.85;1.50;;;29.80;33.90;;;;;;5069027;28;20086;-41
2023/06/04 12:37:17;;;;;;;4.10;1.70;;;29.50;35.60;;;;;;5068633;28;20024;-41
2023/06/04 12:39:43;;;;;;;2.78;1.65;;;29.30;33.60;;;;;;5061058;28;20029;-41
2023/06/04 12:42:09;;;;;;;5.53;2.70;;;29.10;34.20;;;;;;5070201;28;20047;-41
2023/06/04 12:44:39;;;;;;;3.03;1.80;;;28.50;34.50;;;;;;5070031;28;20078;-40
2023/06/04 12:47:06;;;;;;;;;;;27.10;35.70;;;;;;5068889;28;20017;-42
2023/06/04 12:49:31;;;;;;;1.80;1.60;;;27.40;37.00;;;;;;5068528;28;19962;-41